createdAt,value
2023-02-09T00:00:26.540Z,-1.28
2023-02-09T00:05:27.771Z,-1.37
2023-02-09T00:10:28.929Z,-1.47
2023-02-09T00:15:30.140Z,-1.46
2023-02-09T00:20:31.299Z,-1.46
2023-02-09T00:25:32.513Z,-1.45
2023-02-09T00:30:33.704Z,-1.48
2023-02-09T00:35:34.911Z,-1.47
2023-02-09T00:40:36.153Z,-1.45
2023-02-09T00:45:37.427Z,-1.43
2023-02-09T00:50:38.682Z,-1.42
2023-02-09T00:55:39.918Z,-1.51
2023-02-09T01:00:41.114Z,-1.50
2023-02-09T01:05:42.377Z,-1.54
2023-02-09T01:10:43.836Z,-1.55
2023-02-09T01:15:45.256Z,-1.58
2023-02-09T01:20:46.808Z,-1.59
2023-02-09T01:25:48.105Z,-1.63
2023-02-09T01:30:49.544Z,-1.59
2023-02-09T01:35:50.937Z,-1.58
2023-02-09T01:40:53.905Z,-1.58
2023-02-09T01:45:55.271Z,-1.68
2023-02-09T01:50:56.554Z,-1.71
2023-02-09T01:55:57.799Z,-1.66
2023-02-09T02:01:00.141Z,-1.72
2023-02-09T02:06:01.608Z,-1.74
2023-02-09T02:11:02.817Z,-1.77
2023-02-09T02:16:04.369Z,-1.77
2023-02-09T02:21:05.677Z,-1.80
2023-02-09T02:26:07.223Z,-1.75
2023-02-09T02:31:08.608Z,-1.72
2023-02-09T02:36:09.838Z,-1.72
2023-02-09T02:41:11.018Z,-1.71
2023-02-09T02:46:12.301Z,-1.74
2023-02-09T02:51:13.506Z,-1.79
2023-02-09T02:56:14.684Z,-1.85
2023-02-09T03:01:15.943Z,-1.88
2023-02-09T03:06:17.242Z,-1.89
2023-02-09T03:11:18.550Z,-1.96
2023-02-09T03:16:19.810Z,-1.93
2023-02-09T03:21:21.067Z,-2.02
2023-02-09T03:26:22.265Z,-2.06
2023-02-09T03:31:23.648Z,-2.10
2023-02-09T03:36:24.961Z,-2.50
2023-02-09T03:41:26.170Z,-2.23
2023-02-09T03:46:27.483Z,-2.28
2023-02-09T03:51:28.735Z,-2.26
2023-02-09T03:56:29.950Z,-2.26
2023-02-09T04:01:33.273Z,-2.29
2023-02-09T04:06:34.892Z,-2.27
2023-02-09T04:11:36.140Z,-2.36
2023-02-09T04:16:37.438Z,-2.35
2023-02-09T04:21:38.654Z,-2.39
2023-02-09T04:26:39.847Z,-2.40
2023-02-09T04:31:41.153Z,-2.41
2023-02-09T04:36:42.425Z,-2.45
2023-02-09T04:41:43.647Z,-2.51
2023-02-09T04:46:45.737Z,-2.54
2023-02-09T04:51:47.006Z,-2.57
2023-02-09T04:57:08.173Z,-2.60
2023-02-09T05:02:09.384Z,-2.62
2023-02-09T05:07:10.630Z,-2.69
2023-02-09T05:12:11.843Z,-2.68
2023-02-09T05:17:13.106Z,-2.72
2023-02-09T05:22:14.308Z,-2.65
2023-02-09T05:27:15.523Z,-2.69
2023-02-09T05:32:16.732Z,-2.68
2023-02-09T05:37:17.975Z,-2.76
2023-02-09T05:42:19.227Z,-2.84
2023-02-09T05:47:20.523Z,-2.83
2023-02-09T05:52:21.787Z,-2.82
2023-02-09T05:57:22.997Z,-2.82
2023-02-09T06:02:24.235Z,-2.84
2023-02-09T06:07:25.523Z,-2.91
2023-02-09T06:12:26.745Z,-2.92
2023-02-09T06:17:27.990Z,-2.89
2023-02-09T06:22:29.996Z,-2.90
2023-02-09T06:27:31.230Z,-2.91
2023-02-09T06:32:32.458Z,-2.87
2023-02-09T06:37:33.691Z,-2.86
2023-02-09T06:42:44.148Z,-2.93
2023-02-09T06:47:45.490Z,-2.95
2023-02-09T06:52:46.655Z,-2.96
2023-02-09T06:57:47.827Z,-2.97
2023-02-09T07:02:49.089Z,-2.95
2023-02-09T07:07:50.420Z,-2.96
2023-02-09T07:12:51.678Z,-2.86
2023-02-09T07:17:52.918Z,-2.78
2023-02-09T07:22:54.146Z,-2.70
2023-02-09T07:27:55.432Z,-2.65
2023-02-09T07:32:56.692Z,-2.51
2023-02-09T07:37:57.966Z,-2.39
2023-02-09T07:42:59.311Z,-2.35
2023-02-09T07:48:00.498Z,-2.27
2023-02-09T07:53:01.748Z,-2.13
2023-02-09T07:58:02.934Z,-2.01
2023-02-09T08:03:04.149Z,-1.88
2023-02-09T08:08:05.347Z,-1.72
2023-02-09T08:13:06.781Z,-1.62
2023-02-09T08:18:07.985Z,-1.49
2023-02-09T08:23:09.260Z,-1.39
2023-02-09T08:28:10.476Z,-1.29
2023-02-09T08:33:11.715Z,-1.19
2023-02-09T08:38:13.033Z,-1.07
2023-02-09T08:43:14.302Z,-1.22
2023-02-09T08:48:15.507Z,-0.73
2023-02-09T08:53:16.702Z,-0.59
2023-02-09T08:58:17.866Z,-0.43
2023-02-09T09:03:19.081Z,-0.24
2023-02-09T09:08:20.326Z,-0.05
2023-02-09T09:13:21.509Z,0.27
2023-02-09T09:18:22.962Z,0.62
2023-02-09T09:23:24.198Z,1.07
2023-02-09T09:28:25.451Z,1.28
2023-02-09T09:33:26.674Z,1.60
2023-02-09T09:38:27.830Z,2.03
2023-02-09T09:43:29.037Z,2.41
2023-02-09T09:48:30.273Z,2.65
2023-02-09T09:53:33.116Z,2.90
2023-02-09T09:58:34.364Z,3.06
2023-02-09T10:03:35.598Z,3.19
2023-02-09T10:08:36.815Z,3.60
2023-02-09T10:13:38.045Z,3.93
2023-02-09T10:18:40.554Z,4.00
2023-02-09T10:23:41.812Z,4.50
2023-02-09T10:28:43.032Z,5.18
2023-02-09T10:33:44.232Z,6.01
2023-02-09T10:38:45.419Z,7.02
2023-02-09T10:43:46.572Z,7.41
2023-02-09T10:48:47.934Z,7.10
2023-02-09T10:53:49.106Z,6.52
2023-02-09T10:58:50.505Z,6.19
2023-02-09T11:03:51.758Z,5.85
2023-02-09T11:08:53.012Z,5.51
2023-02-09T11:13:54.272Z,5.46
2023-02-09T11:18:56.805Z,5.70
2023-02-09T11:23:58.017Z,5.86
2023-02-09T11:28:59.323Z,5.81
2023-02-09T11:34:00.511Z,5.86
2023-02-09T11:39:01.788Z,6.17
2023-02-09T11:44:02.948Z,6.27
2023-02-09T11:49:04.108Z,6.40
2023-02-09T11:54:05.423Z,6.37
2023-02-09T11:59:06.645Z,6.76
2023-02-09T12:04:07.832Z,7.28
2023-02-09T12:09:09.037Z,7.09
2023-02-09T12:14:10.186Z,6.75
2023-02-09T12:19:11.360Z,6.62
2023-02-09T12:24:12.523Z,6.79
2023-02-09T12:29:13.710Z,6.82
2023-02-09T12:34:14.946Z,6.85
2023-02-09T12:39:16.187Z,6.92
2023-02-09T12:44:18.364Z,6.95
2023-02-09T12:49:20.780Z,6.87
2023-02-09T12:54:22.103Z,6.96
2023-02-09T12:59:23.294Z,7.16
2023-02-09T13:04:24.489Z,7.09
2023-02-09T13:09:25.655Z,6.81
2023-02-09T13:14:26.920Z,6.64
2023-02-09T13:19:36.427Z,6.55
2023-02-09T13:24:47.151Z,6.41
2023-02-09T13:29:48.394Z,6.42
2023-02-09T13:34:49.593Z,6.55
2023-02-09T13:39:50.822Z,6.67
2023-02-09T13:44:52.125Z,6.77
2023-02-09T13:49:53.320Z,6.72
2023-02-09T13:54:54.741Z,6.83
2023-02-09T13:59:55.977Z,6.83
2023-02-09T14:04:57.228Z,6.68
2023-02-09T14:09:58.456Z,6.46
2023-02-09T14:15:18.135Z,6.24
2023-02-09T14:20:19.378Z,6.19
2023-02-09T14:25:20.573Z,6.34
2023-02-09T14:30:21.808Z,6.45
2023-02-09T14:35:23.202Z,6.25
2023-02-09T14:40:24.508Z,6.14
2023-02-09T14:45:25.761Z,6.08
2023-02-09T14:50:26.972Z,5.95
2023-02-09T14:55:28.204Z,5.91
2023-02-09T15:00:29.505Z,5.87
2023-02-09T15:05:30.751Z,5.77
2023-02-09T15:10:31.941Z,5.71
2023-02-09T15:15:37.474Z,5.60
2023-02-09T15:20:38.766Z,5.51
2023-02-09T15:25:39.972Z,5.44
2023-02-09T15:30:41.310Z,5.33
2023-02-09T15:35:42.495Z,5.25
2023-02-09T15:41:02.284Z,5.15
2023-02-09T15:46:03.462Z,4.97
2023-02-09T15:51:04.743Z,4.84
2023-02-09T15:56:06.106Z,4.68
2023-02-09T16:01:07.634Z,4.55
2023-02-09T16:06:08.831Z,4.39
2023-02-09T16:11:10.021Z,4.33
2023-02-09T16:16:17.256Z,4.24
2023-02-09T16:21:18.915Z,4.05
2023-02-09T16:26:20.942Z,3.90
2023-02-09T16:31:22.211Z,3.72
2023-02-09T16:36:23.784Z,3.60
2023-02-09T16:41:43.613Z,3.49
2023-02-09T16:46:44.894Z,3.31
2023-02-09T16:51:49.030Z,3.19
2023-02-09T16:56:54.454Z,3.08
2023-02-09T17:02:00.018Z,2.85
2023-02-09T17:07:01.298Z,2.58
2023-02-09T17:12:02.544Z,2.43
2023-02-09T17:17:03.736Z,2.37
2023-02-09T17:22:04.941Z,2.17
2023-02-09T17:27:06.128Z,2.00
2023-02-09T17:32:07.634Z,2.10
2023-02-09T17:37:08.887Z,2.08
2023-02-09T17:42:10.093Z,1.97
2023-02-09T17:47:14.936Z,1.82
2023-02-09T17:52:20.193Z,1.56
2023-02-09T17:57:23.196Z,1.41
2023-02-09T18:02:24.851Z,1.38
2023-02-09T18:07:26.245Z,1.32
2023-02-09T18:12:28.107Z,1.19
2023-02-09T18:17:30.245Z,1.06
2023-02-09T18:22:31.677Z,0.92
2023-02-09T18:27:33.484Z,0.76
2023-02-09T18:32:35.204Z,0.64
2023-02-09T18:37:39.272Z,0.65
2023-02-09T18:42:47.164Z,0.64
2023-02-09T18:47:48.774Z,0.79
2023-02-09T18:52:51.060Z,0.97
2023-02-09T18:57:54.741Z,1.16
2023-02-09T19:02:59.129Z,1.27
2023-02-09T19:08:00.647Z,1.33
2023-02-09T19:13:07.789Z,1.41
2023-02-09T19:18:09.448Z,1.50
2023-02-09T19:23:11.484Z,1.50
2023-02-09T19:28:12.979Z,1.47
2023-02-09T19:33:17.139Z,1.54
2023-02-09T19:38:18.867Z,1.67
2023-02-09T19:43:21.265Z,1.80
2023-02-09T19:48:26.234Z,1.90
2023-02-09T19:53:33.800Z,1.98
2023-02-09T19:58:35.320Z,2.03
2023-02-09T20:03:39.630Z,2.06
2023-02-09T20:08:44.519Z,2.13
2023-02-09T20:13:46.703Z,2.20
2023-02-09T20:18:48.953Z,2.20
2023-02-09T20:23:50.387Z,2.27
2023-02-09T20:28:55.867Z,2.30
2023-02-09T20:34:00.335Z,2.30
2023-02-09T20:39:02.093Z,2.36
2023-02-09T20:44:22.744Z,2.40
2023-02-09T20:49:24.295Z,2.43
2023-02-09T20:54:25.916Z,2.44
2023-02-09T20:59:27.333Z,2.40
2023-02-09T21:04:32.548Z,2.42
2023-02-09T21:09:34.559Z,2.42
2023-02-09T21:14:42.051Z,2.42
2023-02-09T21:19:44.369Z,2.36
2023-02-09T21:24:45.584Z,2.29
2023-02-09T21:29:46.892Z,2.25
2023-02-09T21:34:48.105Z,2.22
2023-02-09T21:39:49.333Z,2.19
2023-02-09T21:44:50.557Z,2.19
2023-02-09T21:49:51.972Z,2.11
2023-02-09T21:54:53.803Z,2.04
2023-02-09T21:59:55.280Z,1.97
2023-02-09T22:04:56.482Z,1.93
2023-02-09T22:09:57.711Z,1.89
2023-02-09T22:14:58.908Z,1.88
2023-02-09T22:20:00.147Z,1.82
2023-02-09T22:25:01.344Z,1.72
2023-02-09T22:30:02.626Z,1.68
2023-02-09T22:35:03.866Z,1.68
2023-02-09T22:40:05.105Z,1.68
2023-02-09T22:45:06.260Z,1.68
2023-02-09T22:50:07.492Z,1.71
2023-02-09T22:55:08.666Z,1.68
2023-02-09T23:00:09.882Z,1.70
2023-02-09T23:05:11.109Z,1.72
2023-02-09T23:10:12.388Z,1.75
2023-02-09T23:15:13.617Z,1.72
2023-02-09T23:20:14.896Z,1.72
2023-02-09T23:25:16.079Z,1.79
2023-02-09T23:30:17.376Z,1.79
2023-02-09T23:35:18.668Z,1.82
2023-02-09T23:40:19.894Z,1.85
2023-02-09T23:45:21.102Z,1.85
2023-02-09T23:50:22.338Z,1.87
2023-02-09T23:55:23.552Z,1.90
